Time;durP1;ratioP1;P1;durP2;ratioP2;P2;SDS_P1;SDS_P2;PMS_P1;PMS_P2;Temp;Humidity;BMP_temperature;BMP_pressure;BME280_temperature;BME280_humidity;BME280_pressure;Samples;Min_cycle;Max_cycle;Signal;HPM_P1;HPM_P2
2022/12/17 13:09:51;;;;;;;62.53;26.37;;;0.10;1.00;;;;;;10401163;28;20490;-80
2022/12/17 13:15:21;;;;;;;65.77;27.03;;;0.00;1.00;;;;;;10353471;28;20222;-81
2022/12/17 13:20:42;;;;;;;53.97;23.03;;;0.00;1.00;;;;;;10398178;28;20194;-80
2022/12/17 13:26:41;;;;;;;69.17;29.40;;;-0.10;1.00;;;;;;10367468;28;20205;-80
2022/12/17 13:32:21;;;;;;;71.20;29.90;;;-0.20;1.00;;;;;;10221021;29;20244;-80
2022/12/17 13:37:54;;;;;;;73.37;30.93;;;-0.30;1.00;;;;;;10207519;29;20295;-80
2022/12/17 13:43:21;;;;;;;71.60;29.60;;;-0.40;1.00;;;;;;10223553;29;20257;-80
2022/12/17 13:48:42;;;;;;;79.37;30.50;;;-0.50;1.00;;;;;;10236991;28;20315;-81
2022/12/17 13:54:04;;;;;;;79.27;30.40;;;-0.60;1.00;;;;;;10275982;28;20561;-80
2022/12/17 13:59:25;;;;;;;89.13;31.40;;;-0.60;1.00;;;;;;10261774;28;20224;-80
2022/12/17 14:04:52;;;;;;;72.83;28.67;;;-0.80;1.00;;;;;;10217703;28;20201;-81
2022/12/17 14:10:18;;;;;;;57.33;23.33;;;-1.00;1.00;;;;;;10358204;28;20190;-81
2022/12/17 14:15:47;;;;;;;53.87;23.37;;;-1.10;1.00;;;;;;10360897;28;20250;-79
2022/12/17 14:21:09;;;;;;;50.57;23.03;;;-1.20;1.00;;;;;;10371671;28;20196;-80
2022/12/17 14:26:30;;;;;;;58.03;22.53;;;-1.30;1.00;;;;;;10344250;28;20391;-81
2022/12/17 14:32:00;;;;;;;47.80;20.53;;;-1.40;1.00;;;;;;10371125;28;20232;-80
2022/12/17 14:37:23;;;;;;;51.37;20.77;;;-1.50;1.00;;;;;;10373437;28;20204;-80
2022/12/17 14:42:45;;;;;;;52.40;22.67;;;-1.60;1.00;;;;;;10357139;28;20416;-80
2022/12/17 14:48:15;;;;;;;55.80;24.17;;;-1.60;1.00;;;;;;10362272;28;20423;-80
2022/12/17 14:53:36;;;;;;;69.00;29.60;;;-1.60;1.00;;;;;;10396966;28;20231;-80
2022/12/17 14:58:57;;;;;;;55.20;25.83;;;-1.60;1.00;;;;;;10396818;28;20195;-80
2022/12/17 15:04:20;;;;;;;50.30;23.03;;;-1.60;1.00;;;;;;10342299;28;20268;-80
2022/12/17 15:09:41;;;;;;;52.13;21.67;;;-1.50;1.00;;;;;;10355956;28;20278;-81
2022/12/17 15:15:02;;;;;;;48.53;22.33;;;-1.60;1.00;;;;;;10356151;28;20488;-80
2022/12/17 15:20:24;;;;;;;47.33;23.13;;;-1.50;1.00;;;;;;10382005;28;20206;-80
2022/12/17 15:25:47;;;;;;;48.77;22.93;;;-1.60;1.00;;;;;;10395945;28;20225;-80
2022/12/17 15:31:13;;;;;;;46.17;20.43;;;-1.60;1.00;;;;;;10395550;28;20329;-79
2022/12/17 15:36:34;;;;;;;44.37;19.33;;;-1.70;1.00;;;;;;10395738;28;20223;-80
2022/12/17 15:47:35;;;;;;;58.83;23.40;;;-1.80;1.00;;;;;;10381048;28;20512;-80
2022/12/17 15:52:56;;;;;;;53.73;23.63;;;-1.80;1.00;;;;;;10367123;28;20267;-79
2022/12/17 15:58:18;;;;;;;54.77;23.33;;;-1.90;1.00;;;;;;10367465;28;20213;-80
2022/12/17 16:03:39;;;;;;;52.37;24.33;;;-1.90;1.00;;;;;;10351356;28;20374;-79
2022/12/17 16:09:00;;;;;;;65.60;27.50;;;-2.00;1.00;;;;;;10354302;28;20373;-80
2022/12/17 16:14:23;;;;;;;60.67;26.03;;;-2.10;1.00;;;;;;10367042;28;20247;-80
2022/12/17 16:19:44;;;;;;;54.27;24.53;;;-2.20;1.00;;;;;;10380620;28;20243;-80
2022/12/17 16:25:05;;;;;;;62.73;28.63;;;-2.20;1.00;;;;;;10394659;28;20199;-80
2022/12/17 16:30:27;;;;;;;54.13;25.20;;;-2.30;1.00;;;;;;10380279;28;20237;-80
2022/12/17 16:35:53;;;;;;;59.13;26.43;;;-2.30;1.00;;;;;;10401256;28;20225;-80
2022/12/17 16:41:15;;;;;;;54.40;24.87;;;-2.30;1.00;;;;;;10402407;28;20227;-80
2022/12/17 16:46:39;;;;;;;51.00;24.07;;;-2.40;1.00;;;;;;10401914;28;20210;-79
2022/12/17 16:52:02;;;;;;;51.60;23.43;;;-2.40;1.00;;;;;;10403210;28;20224;-79
2022/12/17 16:57:23;;;;;;;49.40;21.87;;;-2.50;1.00;;;;;;10416958;28;20299;-80
2022/12/17 17:02:46;;;;;;;40.73;19.30;;;-2.50;1.00;;;;;;10400217;28;20224;-80
2022/12/17 17:08:11;;;;;;;44.37;21.07;;;-2.50;1.00;;;;;;10387338;28;20263;-79
2022/12/17 17:13:32;;;;;;;48.47;21.00;;;-2.50;1.00;;;;;;10401118;28;20235;-80
2022/12/17 17:18:54;;;;;;;51.27;24.07;;;-2.40;1.00;;;;;;10386832;28;20393;-80
2022/12/17 17:24:16;;;;;;;50.57;22.70;;;-2.50;1.00;;;;;;10400794;28;20282;-80
2022/12/17 17:29:40;;;;;;;49.47;21.60;;;-2.50;1.00;;;;;;10399978;28;20305;-79
2022/12/17 17:35:02;;;;;;;45.80;20.57;;;-2.50;1.00;;;;;;10400141;28;20232;-78
2022/12/17 17:40:24;;;;;;;56.70;23.97;;;-2.50;1.00;;;;;;10400504;28;20213;-79
2022/12/17 17:45:46;;;;;;;58.00;24.87;;;-2.50;1.00;;;;;;10399198;28;20228;-79
2022/12/17 17:51:18;;;;;;;63.30;25.30;;;-2.50;1.00;;;;;;10386204;28;20194;-79
2022/12/17 17:56:43;;;;;;;63.50;27.70;;;-2.60;1.00;;;;;;10386049;28;20303;-78
2022/12/17 18:02:05;;;;;;;56.90;24.67;;;-2.50;1.00;;;;;;10382294;28;20415;-78
2022/12/17 18:07:26;;;;;;;46.87;22.80;;;-2.50;1.00;;;;;;10399280;28;20193;-79
2022/12/17 18:18:28;;;;;;;43.23;22.03;;;-2.40;1.00;;;;;;10358290;28;20204;-81
2022/12/17 18:23:56;;;;;;;53.33;25.33;;;-2.30;1.00;;;;;;10374051;28;20201;-81
2022/12/17 18:29:21;;;;;;;51.87;22.73;;;-2.20;1.00;;;;;;10369906;28;20551;-79
2022/12/17 18:34:42;;;;;;;48.93;23.43;;;-2.10;1.00;;;;;;10398117;28;20214;-80
2022/12/17 18:40:05;;;;;;;58.33;27.30;;;-2.10;1.00;;;;;;10398915;28;20513;-80
2022/12/17 18:45:26;;;;;;;67.03;32.67;;;-2.10;1.00;;;;;;10383299;28;20220;-81
2022/12/17 18:50:47;;;;;;;84.27;40.57;;;-2.00;1.00;;;;;;10383365;28;20378;-80
2022/12/17 18:56:10;;;;;;;84.73;39.37;;;-2.00;1.00;;;;;;10397659;28;20615;-81
2022/12/17 19:01:35;;;;;;;61.50;28.30;;;-1.90;1.00;;;;;;10395945;28;20198;-81
2022/12/17 19:06:57;;;;;;;65.90;30.47;;;-1.90;1.00;;;;;;10396609;28;20552;-80
2022/12/17 19:12:18;;;;;;;78.53;32.03;;;-1.90;1.00;;;;;;10382571;28;20285;-81
2022/12/17 19:17:39;;;;;;;51.97;25.20;;;-1.80;1.00;;;;;;10396124;28;20224;-79
2022/12/17 19:23:00;;;;;;;48.73;22.80;;;-1.80;1.00;;;;;;10397076;28;20192;-79
2022/12/17 19:28:22;;;;;;;45.73;22.73;;;-1.90;1.00;;;;;;10381554;28;20201;-80
2022/12/17 19:33:43;;;;;;;48.60;25.67;;;-1.90;1.00;;;;;;10395164;28;20411;-79
2022/12/17 19:39:09;;;;;;;45.83;22.63;;;-1.90;1.00;;;;;;10381785;28;20224;-79
2022/12/17 19:44:30;;;;;;;69.07;30.40;;;-2.00;1.00;;;;;;10381506;28;20200;-79
2022/12/17 19:49:52;;;;;;;83.97;35.10;;;-2.20;1.00;;;;;;10395167;28;20194;-79
2022/12/17 19:55:13;;;;;;;94.10;37.87;;;-2.40;1.00;;;;;;10395976;28;20442;-79
2022/12/17 20:00:34;;;;;;;88.50;39.73;;;-2.40;1.00;;;;;;10381562;28;20201;-79
2022/12/17 20:05:56;;;;;;;86.50;36.43;;;-2.40;1.00;;;;;;10356580;28;20252;-79
2022/12/17 20:11:33;;;;;;;72.00;31.80;;;-2.40;1.00;;;;;;10340158;28;20203;-79
2022/12/17 20:16:57;;;;;;;66.93;29.13;;;-2.50;1.00;;;;;;10354867;28;20289;-79
2022/12/17 20:22:18;;;;;;;52.33;24.00;;;-2.50;1.00;;;;;;10340058;28;20204;-79
2022/12/17 20:27:40;;;;;;;44.93;21.80;;;-2.60;1.00;;;;;;10354618;28;20186;-77
2022/12/17 20:33:01;;;;;;;46.87;21.30;;;-2.70;1.00;;;;;;10378675;28;20226;-78
2022/12/17 20:38:23;;;;;;;49.40;23.57;;;-2.90;99.90;;;;;;10394501;28;20239;-79
2022/12/17 20:43:44;;;;;;;56.63;25.80;;;-3.00;1.00;;;;;;10380335;28;20199;-79
2022/12/17 20:49:06;;;;;;;88.90;36.80;;;-3.10;1.00;;;;;;10394004;28;20201;-79
2022/12/17 20:54:27;;;;;;;100.47;40.07;;;-3.20;99.90;;;;;;10392564;28;20513;-78
2022/12/17 20:59:48;;;;;;;140.93;53.53;;;-3.40;99.90;;;;;;10393764;28;20491;-78
2022/12/17 21:05:10;;;;;;;180.83;67.13;;;-3.30;99.90;;;;;;10393850;28;20259;-80
2022/12/17 21:10:31;;;;;;;205.43;76.83;;;-3.40;99.90;;;;;;10379675;28;20195;-78
2022/12/17 21:15:53;;;;;;;201.80;73.70;;;-3.50;99.90;;;;;;10393124;28;20290;-79
2022/12/17 21:21:17;;;;;;;156.40;66.47;;;-3.60;99.90;;;;;;10385089;28;20277;-78
2022/12/17 21:26:41;;;;;;;147.00;63.57;;;-3.70;99.90;;;;;;10386429;28;20546;-78
2022/12/17 21:32:02;;;;;;;175.30;77.43;;;-3.70;99.90;;;;;;10386685;28;20225;-78
2022/12/17 21:37:23;;;;;;;200.20;86.13;;;-3.80;99.90;;;;;;10372397;28;20228;-79
2022/12/17 21:43:00;;;;;;;197.97;86.43;;;-3.80;99.90;;;;;;10400173;28;20260;-81
2022/12/17 21:48:21;;;;;;;204.47;86.27;;;-3.90;99.90;;;;;;10399783;28;20205;-80
2022/12/17 21:53:42;;;;;;;215.27;90.10;;;-4.00;45.80;;;;;;10398916;28;20271;-79
2022/12/17 21:59:04;;;;;;;158.20;67.87;;;-4.00;21.30;;;;;;10398945;28;20199;-79
2022/12/17 22:04:25;;;;;;;87.70;39.80;;;-4.10;99.90;;;;;;10374970;28;20221;-78
2022/12/17 22:09:46;;;;;;;63.67;29.50;;;-3.90;99.90;;;;;;10344429;28;20558;-78
2022/12/17 22:15:09;;;;;;;56.73;26.40;;;-3.80;99.90;;;;;;10389569;28;20308;-80
2022/12/17 22:20:31;;;;;;;57.27;26.77;;;-3.70;99.90;;;;;;10398597;28;20196;-80
2022/12/17 22:25:52;;;;;;;55.50;27.30;;;-3.50;99.90;;;;;;10384908;28;20207;-80
2022/12/17 22:36:54;;;;;;;103.20;42.53;;;-3.30;99.90;;;;;;10397637;28;20239;-80
2022/12/17 22:47:55;;;;;;;147.50;62.70;;;-3.60;1.00;;;;;;10398721;28;20198;-80
2022/12/17 22:53:16;;;;;;;126.30;52.23;;;-3.60;18.80;;;;;;10411154;28;20188;-80
2022/12/17 22:58:37;;;;;;;96.93;42.73;;;-3.50;99.90;;;;;;10411061;28;20287;-80
2022/12/17 23:04:01;;;;;;;125.33;47.53;;;-3.50;8.40;;;;;;10382965;28;20365;-80
2022/12/17 23:09:22;;;;;;;132.73;53.07;;;-3.60;1.00;;;;;;10382928;28;20282;-79
2022/12/17 23:14:43;;;;;;;128.37;53.03;;;-3.70;1.00;;;;;;10396154;28;20393;-80
2022/12/17 23:20:05;;;;;;;128.97;53.43;;;-3.90;1.00;;;;;;10397112;28;20189;-80
2022/12/17 23:25:28;;;;;;;148.63;54.63;;;-3.90;1.00;;;;;;10382413;28;20491;-80
2022/12/17 23:30:49;;;;;;;126.07;50.43;;;-4.00;1.00;;;;;;10382226;28;20233;-81
2022/12/17 23:36:15;;;;;;;110.47;41.30;;;-4.20;1.00;;;;;;10382070;28;20282;-81
2022/12/17 23:41:36;;;;;;;90.20;36.07;;;-4.30;1.00;;;;;;10381191;28;20266;-81
2022/12/17 23:46:58;;;;;;;82.53;35.30;;;-4.40;1.00;;;;;;10395045;28;20236;-80
2022/12/17 23:52:19;;;;;;;79.20;32.27;;;-4.30;1.00;;;;;;10381718;28;20196;-80
2022/12/17 23:57:40;;;;;;;94.47;37.57;;;-4.30;99.90;;;;;;10381322;28;20232;-80
